Kipling, Ohio
Current Conditions -  °F | °C
As of 2:53 PM on Thursday 30 Oct 2014 (Local Time) from KZZV Reporting Station
Overcast Overcast  
Wind Chill: 50°   Ceiling: 4800
Heat Index: 50°   Visibility: 10mi
Dew Point: 33°   Wind: 0mph
Humidity: 52%   Direction: NA
Pressure: 30.08"   Gusts: NA
Location:  40°N, 81.5°W
Report Text: KZZV 301853Z AUTO 00000KT 10SM OVC048 10/01 A3008 RMK AO2 SLP191 T01000006
Loading
Personal Weather Stations






























Interactive Weather Map
Tropical Storm Tracking
New forecast layout! Learn more

10-Day Weather Forecast

Advertisements
Track Severe Weather on mobile